Time;durP1;ratioP1;P1;durP2;ratioP2;P2;SDS_P1;SDS_P2;PMS_P1;PMS_P2;Temp;Humidity;BMP_temperature;BMP_pressure;BME280_temperature;BME280_humidity;BME280_pressure;Samples;Min_cycle;Max_cycle;Signal;HPM_P1;HPM_P2
2021/08/09 00:01:09;;;;;;;;;;;15.30;99.90;;;;;;5068322;28;19954;-80
2021/08/09 00:03:35;;;;;;;;;;;15.20;99.90;;;;;;5082511;28;19923;-81
2021/08/09 00:06:01;;;;;;;;;;;15.30;99.90;;;;;;5074535;28;20299;-80
2021/08/09 00:08:26;;;;;;;;;;;15.20;99.90;;;;;;5074439;28;19912;-80
2021/08/09 00:10:52;;;;;;;;;;;15.20;99.90;;;;;;5072298;28;19913;-80
2021/08/09 00:13:17;;;;;;;;;;;15.20;99.90;;;;;;5065298;28;20311;-81
2021/08/09 00:15:43;;;;;;;;;;;15.20;99.90;;;;;;5070492;28;19909;-80
2021/08/09 00:18:08;;;;;;;;;;;15.20;99.90;;;;;;5074252;28;19952;-82
2021/08/09 00:20:34;;;;;;;;;;;15.20;99.90;;;;;;5072944;28;19909;-80
2021/08/09 00:23:00;;;;;;;;;;;15.20;99.90;;;;;;5081109;28;19969;-82
2021/08/09 00:25:26;;;;;;;;;;;15.10;99.90;;;;;;5081507;28;19909;-83
2021/08/09 00:27:51;;;;;;;;;;;15.10;99.90;;;;;;5064603;28;19913;-84
2021/08/09 00:30:17;;;;;;;;;;;15.10;99.90;;;;;;5059411;28;19998;-80
2021/08/09 00:32:42;;;;;;;;;;;15.10;99.90;;;;;;5072059;28;20247;-80
2021/08/09 00:35:08;;;;;;;;;;;15.10;99.90;;;;;;5075178;28;19920;-85
2021/08/09 00:37:34;;;;;;;;;;;15.10;99.90;;;;;;5071203;28;20295;-83
2021/08/09 00:40:00;;;;;;;;;;;15.10;99.90;;;;;;5072873;28;20077;-82
2021/08/09 00:42:26;;;;;;;;;;;15.10;99.90;;;;;;5084328;28;19916;-86
2021/08/09 00:44:51;;;;;;;;;;;15.00;99.90;;;;;;5075303;28;20010;-82
2021/08/09 00:47:17;;;;;;;;;;;15.00;99.90;;;;;;5070922;28;19916;-83
2021/08/09 00:49:42;;;;;;;;;;;15.00;99.90;;;;;;5065074;28;19913;-81
2021/08/09 00:52:08;;;;;;;;;;;15.00;99.90;;;;;;5067780;28;19916;-81
2021/08/09 00:54:34;;;;;;;;;;;15.00;99.90;;;;;;5073040;28;19919;-80
2021/08/09 00:57:00;;;;;;;;;;;15.00;99.90;;;;;;5064037;28;20003;-82
2021/08/09 00:59:27;;;;;;;;;;;15.00;99.90;;;;;;5071549;28;19920;-77
2021/08/09 01:01:52;;;;;;;;;;;15.00;99.90;;;;;;5069026;28;20018;-81
2021/08/09 01:04:18;;;;;;;;;;;15.10;99.90;;;;;;5084862;28;20007;-81
2021/08/09 01:06:44;;;;;;;;;;;15.00;99.90;;;;;;5080907;28;20262;-81
2021/08/09 01:09:17;;;;;;;;;;;15.00;99.90;;;;;;5089181;28;19912;-84
2021/08/09 01:12:02;;;;;;;;;;;15.00;99.90;;;;;;5077461;28;20300;-82
2021/08/09 01:14:47;;;;;;;;;;;15.00;99.90;;;;;;5074779;28;19966;-80
2021/08/09 01:17:14;;;;;;;;;;;15.00;99.90;;;;;;5074911;28;19995;-81
2021/08/09 01:19:40;;;;;;;;;;;15.00;99.90;;;;;;5077204;28;20374;-82
2021/08/09 01:22:10;;;;;;;;;;;15.00;99.90;;;;;;5075392;28;19928;-81
2021/08/09 01:24:56;;;;;;;;;;;15.00;99.90;;;;;;5083647;28;19973;-83
2021/08/09 01:27:22;;;;;;;;;;;15.00;99.90;;;;;;5063035;28;19954;-80
2021/08/09 01:29:47;;;;;;;;;;;15.10;99.90;;;;;;5091613;28;19947;-81
2021/08/09 01:32:16;;;;;;;;;;;15.00;99.90;;;;;;5070419;28;19921;-85
2021/08/09 01:34:42;;;;;;;;;;;15.00;99.90;;;;;;5072236;28;19916;-81
2021/08/09 01:37:09;;;;;;;;;;;15.00;99.90;;;;;;5078149;28;20211;-83
2021/08/09 01:39:35;;;;;;;;;;;15.00;99.90;;;;;;5076760;28;19978;-83
2021/08/09 01:42:01;;;;;;;;;;;15.00;99.90;;;;;;5076969;28;20294;-80
2021/08/09 01:44:26;;;;;;;;;;;15.00;99.90;;;;;;5091143;28;19913;-83
2021/08/09 01:46:52;;;;;;;;;;;15.00;99.90;;;;;;5076687;28;20287;-84
2021/08/09 01:49:19;;;;;;;;;;;15.00;99.90;;;;;;5077350;28;19934;-78
2021/08/09 01:51:45;;;;;;;;;;;15.00;99.90;;;;;;5084030;28;19931;-82
2021/08/09 01:54:11;;;;;;;;;;;15.00;99.90;;;;;;5060360;28;20337;-82
2021/08/09 01:56:38;;;;;;;;;;;15.00;99.90;;;;;;5067896;28;20017;-79
2021/08/09 01:59:03;;;;;;;;;;;15.00;99.90;;;;;;5063013;28;20223;-83
2021/08/09 02:01:29;;;;;;;;;;;15.00;99.90;;;;;;5065988;28;19920;-80
2021/08/09 02:03:55;;;;;;;;;;;15.00;99.90;;;;;;5083793;28;19916;-80
2021/08/09 02:06:20;;;;;;;;;;;14.90;99.90;;;;;;5072528;28;19912;-81
2021/08/09 02:08:47;;;;;;;;;;;14.90;99.90;;;;;;5069715;28;20250;-80
2021/08/09 02:11:24;;;;;;;;;;;14.90;99.90;;;;;;5081818;28;20046;-80
2021/08/09 02:13:51;;;;;;;;;;;14.90;99.90;;;;;;5067758;28;19913;-81
2021/08/09 02:16:17;;;;;;;;;;;14.90;99.90;;;;;;5072195;28;19912;-80
2021/08/09 02:18:47;;;;;;;;;;;14.90;99.90;;;;;;5072431;28;19913;-80
2021/08/09 02:21:16;;;;;;;;;;;14.90;99.90;;;;;;5069544;28;19923;-82
2021/08/09 02:23:48;;;;;;;;;;;14.80;99.90;;;;;;5074208;28;19928;-81
2021/08/09 02:26:40;;;;;;;;;;;14.80;99.90;;;;;;5072114;28;20409;-80
2021/08/09 02:29:08;;;;;;;;;;;14.70;99.90;;;;;;5061114;28;19908;-80
2021/08/09 02:31:36;;;;;;;;;;;14.70;99.90;;;;;;5068597;28;19917;-81
2021/08/09 02:34:02;;;;;;;;;;;14.80;99.90;;;;;;5060808;28;19916;-80
2021/08/09 02:36:28;;;;;;;;;;;14.70;99.90;;;;;;5071270;28;20261;-83
2021/08/09 02:38:55;;;;;;;;;;;14.70;99.90;;;;;;5085181;28;19909;-82
2021/08/09 02:41:20;;;;;;;;;;;14.80;99.90;;;;;;5088645;28;20218;-81
2021/08/09 02:43:46;;;;;;;;;;;14.80;99.90;;;;;;5081531;28;19925;-83
2021/08/09 02:46:12;;;;;;;;;;;14.80;99.90;;;;;;5086373;28;19926;-79
2021/08/09 02:48:40;;;;;;;;;;;14.80;99.90;;;;;;5077162;28;20243;-81
2021/08/09 02:51:05;;;;;;;;;;;14.70;99.90;;;;;;5070508;28;20010;-80
2021/08/09 02:53:31;;;;;;;;;;;14.70;99.90;;;;;;5080194;28;19912;-80
2021/08/09 02:55:59;;;;;;;;;;;14.70;99.90;;;;;;5080486;28;19917;-81
2021/08/09 02:58:24;;;;;;;;;;;14.70;99.90;;;;;;5084856;28;20303;-82
2021/08/09 03:00:51;;;;;;;;;;;14.70;99.90;;;;;;5084518;28;19971;-82
2021/08/09 03:03:24;;;;;;;;;;;14.70;99.90;;;;;;5085355;28;19920;-81
2021/08/09 03:05:53;;;;;;;;;;;14.70;99.90;;;;;;5082724;28;19913;-80
2021/08/09 03:08:18;;;;;;;;;;;14.70;99.90;;;;;;5086039;28;20228;-81
2021/08/09 03:10:44;;;;;;;;;;;14.70;99.90;;;;;;5072010;28;19912;-80
2021/08/09 03:13:10;;;;;;;;;;;14.70;99.90;;;;;;5068355;28;19920;-82
2021/08/09 03:15:37;;;;;;;;;;;14.70;99.90;;;;;;5074062;28;19912;-81
2021/08/09 03:18:02;;;;;;;;;;;14.70;99.90;;;;;;5067729;28;19924;-83
2021/08/09 03:20:29;;;;;;;;;;;14.70;99.90;;;;;;5085231;28;19916;-81
2021/08/09 03:22:54;;;;;;;;;;;14.70;99.90;;;;;;5072430;28;19912;-80
2021/08/09 03:25:20;;;;;;;;;;;14.70;99.90;;;;;;5071091;28;20239;-78
2021/08/09 03:27:45;;;;;;;;;;;14.70;99.90;;;;;;5071122;28;20196;-79
2021/08/09 03:30:11;;;;;;;;;;;14.70;99.90;;;;;;5067580;28;19920;-79
2021/08/09 03:32:37;;;;;;;;;;;14.70;99.90;;;;;;5067979;28;19925;-82
2021/08/09 03:35:03;;;;;;;;;;;14.70;99.90;;;;;;5074735;28;19970;-81
2021/08/09 03:37:28;;;;;;;;;;;14.70;99.90;;;;;;5074910;28;19939;-80
2021/08/09 03:39:54;;;;;;;;;;;14.70;99.90;;;;;;5073049;28;19916;-81
2021/08/09 03:42:20;;;;;;;;;;;14.70;99.90;;;;;;5073358;28;19912;-80
2021/08/09 03:44:46;;;;;;;;;;;14.60;99.90;;;;;;5088381;28;19942;-79
2021/08/09 03:47:11;;;;;;;;;;;14.60;99.90;;;;;;5073948;28;19920;-81
2021/08/09 03:49:37;;;;;;;;;;;14.60;99.90;;;;;;5066370;28;19913;-80
2021/08/09 03:52:03;;;;;;;;;;;14.50;99.90;;;;;;5073965;28;19916;-79
2021/08/09 03:54:28;;;;;;;;;;;14.60;99.90;;;;;;5070512;28;19916;-79
2021/08/09 03:56:55;;;;;;;;;;;14.50;99.90;;;;;;5073875;28;19954;-80
2021/08/09 03:59:20;;;;;;;;;;;14.50;99.90;;;;;;5090458;28;19919;-82
2021/08/09 04:01:48;;;;;;;;;;;14.50;99.90;;;;;;5065031;28;20176;-82
2021/08/09 04:04:14;;;;;;;;;;;14.50;99.90;;;;;;5061786;28;19963;-82
2021/08/09 04:06:40;;;;;;;;;;;14.40;99.90;;;;;;5058472;28;19913;-79
2021/08/09 04:09:08;;;;;;;;;;;14.50;99.90;;;;;;5072476;28;19959;-80
2021/08/09 04:11:34;;;;;;;;;;;14.50;99.90;;;;;;5074833;28;19912;-80
2021/08/09 04:14:01;;;;;;;;;;;14.60;99.90;;;;;;5074257;28;19958;-82
2021/08/09 04:16:27;;;;;;;;;;;14.50;99.90;;;;;;5059884;28;20278;-80
2021/08/09 04:18:53;;;;;;;;;;;14.50;99.90;;;;;;5062803;28;19924;-78
2021/08/09 04:21:19;;;;;;;;;;;14.60;99.90;;;;;;5068151;28;19957;-81
2021/08/09 04:23:44;;;;;;;;;;;14.60;99.90;;;;;;5063314;28;19920;-83
2021/08/09 04:26:10;;;;;;;;;;;14.60;99.90;;;;;;5063235;28;19920;-81
2021/08/09 04:28:36;;;;;;;;;;;14.50;99.90;;;;;;5061136;28;19920;-81
2021/08/09 04:31:01;;;;;;;;;;;14.50;99.90;;;;;;5068543;28;19955;-78
2021/08/09 04:33:27;;;;;;;;;;;14.60;99.90;;;;;;5063295;28;19929;-79
2021/08/09 04:35:52;;;;;;;;;;;14.60;99.90;;;;;;5063431;28;19923;-79
2021/08/09 04:38:18;;;;;;;;;;;14.50;99.90;;;;;;5069188;28;19912;-80
2021/08/09 04:40:44;;;;;;;;;;;14.60;99.90;;;;;;5064424;28;19920;-81
2021/08/09 04:43:09;;;;;;;;;;;14.60;99.90;;;;;;5063440;28;19936;-78
2021/08/09 04:45:35;;;;;;;;;;;14.60;99.90;;;;;;5067388;28;19922;-80
2021/08/09 04:48:00;;;;;;;;;;;14.70;99.90;;;;;;5065488;28;20320;-79
2021/08/09 04:50:26;;;;;;;;;;;14.60;99.90;;;;;;5062568;28;19913;-81
2021/08/09 04:52:51;;;;;;;;;;;14.60;99.90;;;;;;5070062;28;19923;-80
2021/08/09 04:55:17;;;;;;;;;;;14.70;99.90;;;;;;5059306;28;20020;-79
2021/08/09 04:57:42;;;;;;;;;;;14.60;99.90;;;;;;5063072;28;19913;-79
2021/08/09 05:00:08;;;;;;;;;;;14.70;99.90;;;;;;5063811;28;19927;-80
2021/08/09 05:02:37;;;;;;;;;;;14.70;99.90;;;;;;5060584;28;20007;-82
2021/08/09 05:05:04;;;;;;;;;;;14.60;99.90;;;;;;5069324;28;19941;-82
2021/08/09 05:07:30;;;;;;;;;;;14.70;99.90;;;;;;5061903;28;19912;-80
2021/08/09 05:09:55;;;;;;;;;;;14.70;99.90;;;;;;5062420;28;19962;-78
2021/08/09 05:12:21;;;;;;;;;;;14.70;99.90;;;;;;5060458;28;19917;-79
2021/08/09 05:14:47;;;;;;;;;;;14.70;99.90;;;;;;5060636;28;19920;-82
2021/08/09 05:17:12;;;;;;;;;;;14.70;99.90;;;;;;5056580;28;20003;-79
2021/08/09 05:19:38;;;;;;;;;;;14.80;99.90;;;;;;5065093;28;19912;-80
2021/08/09 05:22:03;;;;;;;;;;;14.80;99.90;;;;;;5064994;28;19917;-79
2021/08/09 05:24:30;;;;;;;;;;;14.80;99.90;;;;;;5066143;28;19908;-79
2021/08/09 05:26:56;;;;;;;;;;;14.80;99.90;;;;;;5064582;28;20248;-78
2021/08/09 05:29:22;;;;;;;;;;;14.80;99.90;;;;;;5058367;28;20303;-81
2021/08/09 05:31:47;;;;;;;;;;;14.80;99.90;;;;;;5059300;28;19925;-82
2021/08/09 05:34:13;;;;;;;;;;;14.80;99.90;;;;;;5060468;28;19933;-79
2021/08/09 05:36:38;;;;;;;;;;;14.90;99.90;;;;;;5070053;28;19913;-80
2021/08/09 05:39:04;;;;;;;;;;;14.90;99.90;;;;;;5068119;28;19987;-79
2021/08/09 05:41:31;;;;;;;;;;;14.90;99.90;;;;;;5064813;28;19966;-80
2021/08/09 05:43:57;;;;;;;;;;;14.90;99.90;;;;;;5071364;28;19921;-80
2021/08/09 05:46:23;;;;;;;;;;;14.90;99.90;;;;;;5077445;28;19912;-79
2021/08/09 05:48:48;;;;;;;;;;;14.90;99.90;;;;;;5081008;28;19912;-81
2021/08/09 05:51:14;;;;;;;;;;;14.90;99.90;;;;;;5088420;28;20219;-80
2021/08/09 05:53:39;;;;;;;;;;;14.90;99.90;;;;;;5087152;28;20210;-80
2021/08/09 05:56:05;;;;;;;;;;;14.90;99.90;;;;;;5089983;28;19908;-82
2021/08/09 05:58:31;;;;;;;;;;;14.90;99.90;;;;;;5085446;28;19912;-80
2021/08/09 06:00:56;;;;;;;;;;;15.00;99.90;;;;;;5088634;28;20011;-81
2021/08/09 06:03:23;;;;;;;;;;;15.00;99.90;;;;;;5092085;28;19931;-79
2021/08/09 06:05:49;;;;;;;;;;;15.10;99.90;;;;;;5093084;28;19908;-80
2021/08/09 06:08:14;;;;;;;;;;;15.10;99.90;;;;;;5091628;28;19908;-80
2021/08/09 06:10:40;;;;;;;;;;;15.20;99.90;;;;;;5085652;28;19999;-79
2021/08/09 06:13:06;;;;;;;;;;;15.30;99.90;;;;;;5085859;28;19915;-77
2021/08/09 06:15:31;;;;;;;;;;;15.40;99.90;;;;;;5083334;28;19977;-79
2021/08/09 06:17:57;;;;;;;;;;;15.50;99.90;;;;;;5082412;28;19916;-82
2021/08/09 06:20:22;;;;;;;;;;;15.50;99.90;;;;;;5089671;28;19912;-79
2021/08/09 06:22:48;;;;;;;;;;;15.60;99.90;;;;;;5094170;28;19912;-79
2021/08/09 06:25:14;;;;;;;;;;;15.60;99.90;;;;;;5094320;28;19908;-82
2021/08/09 06:27:41;;;;;;;;;;;15.70;99.90;;;;;;5091519;28;19916;-80
2021/08/09 06:30:06;;;;;;;;;;;15.70;99.90;;;;;;5087018;28;19913;-80
2021/08/09 06:32:32;;;;;;;;;;;15.70;99.90;;;;;;5084961;28;19924;-80
2021/08/09 06:34:57;;;;;;;;;;;15.70;99.90;;;;;;5082758;28;19916;-79
2021/08/09 06:37:23;;;;;;;;;;;15.80;99.90;;;;;;5075979;28;19909;-80
2021/08/09 06:39:49;;;;;;;;;;;15.80;99.90;;;;;;5070814;28;19913;-79
2021/08/09 06:42:14;;;;;;;;;;;15.80;99.90;;;;;;5068913;28;19963;-80
2021/08/09 06:44:40;;;;;;;;;;;15.80;99.90;;;;;;5065498;28;19991;-80
2021/08/09 06:47:05;;;;;;;;;;;15.90;99.90;;;;;;5068540;28;19918;-82
2021/08/09 06:49:31;;;;;;;;;;;16.00;99.90;;;;;;5061628;28;19932;-80
2021/08/09 06:51:56;;;;;;;;;;;16.00;99.90;;;;;;5066512;28;20226;-80
2021/08/09 06:54:25;;;;;;;;;;;16.10;99.90;;;;;;5062761;28;20570;-80
2021/08/09 06:56:51;;;;;;;;;;;16.20;99.90;;;;;;5072986;28;20349;-78
2021/08/09 06:59:17;;;;;;;;;;;16.20;99.90;;;;;;5059756;28;19916;-80
2021/08/09 07:01:42;;;;;;;;;;;16.30;99.90;;;;;;5061955;28;19917;-80
2021/08/09 07:04:08;;;;;;;;;;;16.40;99.90;;;;;;5067045;28;20007;-79
2021/08/09 07:06:33;;;;;;;;;;;16.40;99.90;;;;;;5072916;28;19912;-81
2021/08/09 07:09:02;;;;;;;;;;;16.40;99.90;;;;;;5062570;28;19919;-80
2021/08/09 07:11:28;;;;;;;;;;;16.50;99.90;;;;;;5065166;28;19962;-77
2021/08/09 07:13:54;;;;;;;;;;;16.60;99.90;;;;;;5067095;28;20230;-80
2021/08/09 07:16:23;;;;;;;;;;;16.70;99.90;;;;;;5066951;28;19916;-78
2021/08/09 07:18:49;;;;;;;;;;;16.70;99.90;;;;;;5065767;28;19920;-79
2021/08/09 07:21:14;;;;;;;;;;;16.70;99.90;;;;;;5065252;28;20300;-80
2021/08/09 07:23:40;;;;;;;;;;;16.80;99.90;;;;;;5064514;28;20307;-81
2021/08/09 07:26:06;;;;;;;;;;;16.90;99.90;;;;;;5061952;28;19913;-81
2021/08/09 07:28:32;;;;;;;;;;;17.10;99.90;;;;;;5064004;28;20010;-82
2021/08/09 07:30:57;;;;;;;;;;;17.20;99.90;;;;;;5069338;28;19916;-81
2021/08/09 07:33:23;;;;;;;;;;;17.30;99.90;;;;;;5059732;28;20276;-80
2021/08/09 07:35:48;;;;;;;;;;;17.40;99.90;;;;;;5064311;28;19920;-81
2021/08/09 07:38:14;;;;;;;;;;;17.50;99.90;;;;;;5064659;28;20319;-80
2021/08/09 07:40:40;;;;;;;;;;;17.70;99.90;;;;;;5064100;28;19951;-81
2021/08/09 07:43:05;;;;;;;;;;;17.80;99.90;;;;;;5063893;28;19917;-82
2021/08/09 07:45:31;;;;;;;;;;;17.90;99.90;;;;;;5068008;28;19912;-79
2021/08/09 07:47:57;;;;;;;;;;;18.10;99.90;;;;;;5071105;28;19916;-82
2021/08/09 07:50:23;;;;;;;;;;;18.20;99.90;;;;;;5071788;28;19917;-81
2021/08/09 07:52:49;;;;;;;;;;;18.30;99.90;;;;;;5077935;28;19930;-81
2021/08/09 07:55:14;;;;;;;;;;;18.40;99.90;;;;;;5084239;28;19978;-81
2021/08/09 07:57:41;;;;;;;;;;;18.50;99.90;;;;;;5090812;28;19912;-80
2021/08/09 08:00:08;;;;;;;;;;;18.50;99.90;;;;;;5085078;28;20010;-80
2021/08/09 08:02:34;;;;;;;;;;;18.50;99.90;;;;;;5081368;28;20000;-80
2021/08/09 08:04:59;;;;;;;;;;;18.30;99.90;;;;;;5077169;28;19920;-81
2021/08/09 08:07:25;;;;;;;;;;;18.40;99.90;;;;;;5078946;28;19917;-82
2021/08/09 08:09:50;;;;;;;;;;;18.30;99.90;;;;;;5088412;28;19995;-79
2021/08/09 08:12:16;;;;;;;;;;;18.20;99.90;;;;;;5085272;28;20356;-79
2021/08/09 08:14:42;;;;;;;;;;;18.10;99.90;;;;;;5087908;28;19959;-85
2021/08/09 08:17:07;;;;;;;;;;;17.90;99.90;;;;;;5079572;28;19916;-79
2021/08/09 08:19:33;;;;;;;;;;;17.70;99.90;;;;;;5083754;28;20347;-79
2021/08/09 08:21:58;;;;;;;;;;;17.40;99.90;;;;;;5073896;28;20307;-78
2021/08/09 08:24:24;;;;;;;;;;;17.20;99.90;;;;;;5082679;28;19920;-78
2021/08/09 08:26:50;;;;;;;;;;;17.00;99.90;;;;;;5075223;28;20200;-80
2021/08/09 08:29:15;;;;;;;;;;;16.90;99.90;;;;;;5085250;28;19916;-79
2021/08/09 08:31:42;;;;;;;;;;;16.80;99.90;;;;;;5084804;28;19920;-78
2021/08/09 08:34:08;;;;;;;;;;;16.80;99.90;;;;;;5086075;28;20223;-78
2021/08/09 08:36:34;;;;;;;;;;;16.80;99.90;;;;;;5079799;28;19920;-80
2021/08/09 08:39:00;;;;;;;;;;;16.90;99.90;;;;;;5084457;28;19926;-76
2021/08/09 08:41:25;;;;;;;;;;;16.90;99.90;;;;;;5084455;28;19912;-78
2021/08/09 08:43:51;;;;;;;;;;;17.00;99.90;;;;;;5084925;28;19993;-77
2021/08/09 08:46:17;;;;;;;;;;;17.10;99.90;;;;;;5089121;28;19921;-83
2021/08/09 08:48:42;;;;;;;;;;;17.10;99.90;;;;;;5075819;28;20003;-77
2021/08/09 08:51:08;;;;;;;;;;;17.20;99.90;;;;;;5068018;28;19920;-80
2021/08/09 08:53:35;;;;;;;;;;;17.30;99.90;;;;;;5076519;28;19947;-78
2021/08/09 08:56:03;;;;;;;;;;;17.50;99.90;;;;;;5064864;28;19924;-80
2021/08/09 08:58:29;;;;;;;;;;;17.60;99.90;;;;;;5062121;28;19931;-82
2021/08/09 09:00:54;;;;;;;;;;;17.70;99.90;;;;;;5065683;28;19912;-81
2021/08/09 09:03:24;;;;;;;;;;;17.80;99.90;;;;;;5064663;28;19985;-76
2021/08/09 09:06:00;;;;;;;;;;;17.90;99.90;;;;;;5065364;28;19920;-78
2021/08/09 09:08:35;;;;;;;;;;;18.00;99.90;;;;;;5079886;28;20267;-78
2021/08/09 09:11:01;;;;;;;;;;;18.00;99.90;;;;;;5067182;28;19912;-77
2021/08/09 09:13:26;;;;;;;;;;;18.00;99.90;;;;;;5077930;28;20008;-80
2021/08/09 09:16:02;;;;;;;;;;;18.00;99.90;;;;;;5080403;28;20039;-79
2021/08/09 09:18:48;;;;;;;;;;;18.00;99.90;;;;;;5056597;28;19927;-77
2021/08/09 09:21:26;;;;;;;;;;;18.00;99.90;;;;;;5084079;28;19995;-78
2021/08/09 09:23:55;;;;;;;;;;;18.20;99.90;;;;;;5063838;28;19923;-78
2021/08/09 09:26:25;;;;;;;;;;;18.40;99.90;;;;;;5059956;28;19919;-78
2021/08/09 09:28:51;;;;;;;;;;;18.50;99.90;;;;;;5062833;28;20303;-77
2021/08/09 09:31:27;;;;;;;;;;;18.60;99.90;;;;;;5065488;28;20343;-80
2021/08/09 09:33:53;;;;;;;;;;;18.60;99.90;;;;;;5072999;28;19966;-77
2021/08/09 09:36:21;;;;;;;;;;;18.60;99.90;;;;;;5070324;28;20334;-79
2021/08/09 09:38:49;;;;;;;;;;;18.60;99.90;;;;;;5073261;28;19912;-80
2021/08/09 09:41:14;;;;;;;;;;;18.60;99.90;;;;;;5067527;28;19919;-81
2021/08/09 09:43:41;;;;;;;;;;;18.60;99.90;;;;;;5073755;28;20231;-82
2021/08/09 09:46:18;;;;;;;;;;;18.60;99.90;;;;;;5059375;28;20007;-88
2021/08/09 09:48:44;;;;;;;;;;;18.50;99.90;;;;;;5061773;28;19920;-79
2021/08/09 09:51:14;;;;;;;;;;;18.60;99.90;;;;;;5074556;28;19916;-80
2021/08/09 09:53:40;;;;;;;;;;;18.50;99.90;;;;;;5089093;28;19912;-79
2021/08/09 09:56:07;;;;;;;;;;;18.60;99.90;;;;;;5081762;28;19912;-79
2021/08/09 09:58:37;;;;;;;;;;;18.60;99.90;;;;;;5078939;28;19923;-81
2021/08/09 10:01:06;;;;;;;;;;;18.70;99.90;;;;;;5077063;28;19970;-80
2021/08/09 10:03:33;;;;;;;;;;;18.70;99.90;;;;;;5064610;28;19995;-79
2021/08/09 10:05:59;;;;;;;;;;;18.70;99.90;;;;;;5074724;28;19916;-79
2021/08/09 10:08:27;;;;;;;;;;;18.70;99.90;;;;;;5067231;28;19959;-82
2021/08/09 10:10:53;;;;;;;;;;;18.80;99.90;;;;;;5074387;28;20372;-81
2021/08/09 10:13:20;;;;;;;;;;;18.80;99.90;;;;;;5072552;28;19917;-80
2021/08/09 10:15:55;;;;;;;;;;;18.80;99.90;;;;;;5080392;28;19912;-79
2021/08/09 10:18:23;;;;;;;;;;;18.80;99.90;;;;;;5067263;28;19950;-81
2021/08/09 10:20:49;;;;;;;;;;;18.90;99.90;;;;;;5077088;28;20270;-80
2021/08/09 10:23:33;;;;;;;;;;;18.90;99.90;;;;;;5079417;28;19930;-79
2021/08/09 10:25:59;;;;;;;;;;;19.00;99.90;;;;;;5083027;28;19920;-80
2021/08/09 10:28:44;;;;;;;;;;;19.00;99.90;;;;;;5075636;28;19924;-82
2021/08/09 10:31:28;;;;;;;;;;;19.00;99.90;;;;;;5077411;28;19951;-79
2021/08/09 10:33:54;;;;;;;;;;;19.20;99.90;;;;;;5080185;28;20283;-78
2021/08/09 10:36:21;;;;;;;;;;;19.50;99.90;;;;;;5070758;28;19955;-79
2021/08/09 10:38:49;;;;;;;;;;;19.70;99.90;;;;;;5082201;28;19923;-79
2021/08/09 10:41:14;;;;;;;;;;;19.90;99.90;;;;;;5083143;28;19935;-79
2021/08/09 10:44:15;;;;;;;;;;;20.00;99.90;;;;;;5068171;28;19925;-79
2021/08/09 10:46:43;;;;;;;;;;;19.90;99.90;;;;;;5030229;28;19952;-86
2021/08/09 10:49:09;;;;;;;;;;;19.80;99.90;;;;;;5052078;28;19913;-81
2021/08/09 10:51:53;;;;;;;;;;;19.60;99.90;;;;;;5028989;28;20022;-79
2021/08/09 10:54:28;;;;;;;;;;;19.40;99.90;;;;;;5031496;28;19959;-79
2021/08/09 10:56:55;;;;;;;;;;;19.40;99.90;;;;;;5049571;28;19917;-80
2021/08/09 10:59:39;;;;;;;;;;;19.30;99.90;;;;;;5053415;28;19909;-82
2021/08/09 11:02:15;;;;;;;;;;;19.40;99.90;;;;;;5030476;28;19917;-81
2021/08/09 11:04:41;;;;;;;;;;;19.40;99.90;;;;;;5034948;28;19924;-81
2021/08/09 11:07:16;;;;;;;;;;;19.30;99.90;;;;;;5046418;28;19916;-81
2021/08/09 11:09:43;;;;;;;;;;;19.30;99.90;;;;;;5053352;28;19947;-77
2021/08/09 11:12:08;;;;;;;;;;;19.20;99.90;;;;;;5035946;28;19908;-82
2021/08/09 11:14:52;;;;;;;;;;;19.10;99.90;;;;;;5051039;28;20277;-79
2021/08/09 11:17:18;;;;;;;;;;;19.10;99.90;;;;;;5044328;28;19913;-79
2021/08/09 11:19:43;;;;;;;;;;;18.90;99.90;;;;;;5046835;28;19909;-83
2021/08/09 11:22:09;;;;;;;;;;;18.90;99.90;;;;;;5086603;28;19916;-81
2021/08/09 11:24:35;;;;;;;;;;;18.80;99.90;;;;;;5071312;28;19935;-80
2021/08/09 11:27:04;;;;;;;;;;;18.90;99.90;;;;;;5068110;28;20077;-79
2021/08/09 11:29:49;;;;;;;;;;;18.90;99.90;;;;;;5072271;28;20226;-81
2021/08/09 11:32:15;;;;;;;;;;;19.00;99.90;;;;;;5078448;28;19924;-81
2021/08/09 11:34:59;;;;;;;;;;;19.00;99.90;;;;;;5076166;28;20313;-79
2021/08/09 11:37:25;;;;;;;;;;;19.00;99.90;;;;;;5061539;28;19913;-80
2021/08/09 11:39:51;;;;;;;;;;;19.00;99.90;;;;;;5067420;28;19920;-80
2021/08/09 11:42:16;;;;;;;;;;;19.10;99.90;;;;;;5068367;28;19916;-81
2021/08/09 11:44:42;;;;;;;;;;;19.30;99.90;;;;;;5068923;28;19921;-80
2021/08/09 11:47:07;;;;;;;;;;;19.50;99.90;;;;;;5065525;28;19954;-81
2021/08/09 11:49:33;;;;;;;;;;;19.60;99.90;;;;;;5068371;28;19919;-81
2021/08/09 11:51:59;;;;;;;;;;;19.50;99.90;;;;;;5066210;28;20169;-80
2021/08/09 11:54:45;;;;;;;;;;;19.50;99.90;;;;;;5064703;28;19909;-83
2021/08/09 11:57:10;;;;;;;;;;;19.50;99.90;;;;;;5070334;28;19915;-83
2021/08/09 11:59:40;;;;;;;;;;;19.70;99.90;;;;;;5083403;28;19998;-80
2021/08/09 12:02:07;;;;;;;;;;;19.90;99.90;;;;;;5081075;28;19913;-81
2021/08/09 12:04:42;;;;;;;;;;;20.00;99.90;;;;;;5082755;28;20003;-80
2021/08/09 12:07:21;;;;;;;;;;;19.80;99.90;;;;;;5087828;28;19964;-79
2021/08/09 12:09:47;;;;;;;;;;;19.70;99.90;;;;;;5082803;28;19938;-83
2021/08/09 12:12:14;;;;;;;;;;;19.60;99.90;;;;;;5079870;28;20009;-81
2021/08/09 12:14:40;;;;;;;;;;;19.60;99.90;;;;;;5083109;28;19918;-82
2021/08/09 12:17:14;;;;;;;;;;;19.70;99.90;;;;;;5065436;28;19913;-79
2021/08/09 12:19:50;;;;;;;;;;;19.70;99.90;;;;;;5072676;28;19966;-83
2021/08/09 12:22:29;;;;;;;;;;;19.70;99.90;;;;;;5072983;28;20553;-81
2021/08/09 12:25:04;;;;;;;;;;;19.70;99.90;;;;;;5071875;28;19908;-80
2021/08/09 12:27:31;;;;;;;;;;;19.70;99.90;;;;;;5069238;28;19932;-80
2021/08/09 12:30:07;;;;;;;;;;;19.90;99.90;;;;;;5077180;28;19913;-83
2021/08/09 12:32:33;;;;;;;;;;;20.00;99.90;;;;;;5082914;28;19960;-83
2021/08/09 12:34:59;;;;;;;;;;;20.20;99.90;;;;;;5083419;28;19958;-81
2021/08/09 12:37:25;;;;;;;;;;;20.30;99.90;;;;;;5070598;28;20307;-82
2021/08/09 12:39:51;;;;;;;;;;;20.40;99.90;;;;;;5068636;28;19909;-86
2021/08/09 12:42:19;;;;;;;;;;;20.30;99.90;;;;;;5078702;28;19923;-80
2021/08/09 12:44:45;;;;;;;;;;;20.60;99.90;;;;;;5074808;28;19958;-78
2021/08/09 12:47:12;;;;;;;;;;;20.60;99.90;;;;;;5071763;28;19912;-82
2021/08/09 12:49:37;;;;;;;;;;;20.50;99.90;;;;;;5070686;28;19931;-79
2021/08/09 12:52:03;;;;;;;;;;;20.70;99.90;;;;;;5075126;28;19920;-79
2021/08/09 12:54:30;;;;;;;;;;;20.90;99.90;;;;;;5080336;28;19909;-80
2021/08/09 12:56:56;;;;;;;;;;;21.10;99.90;;;;;;5066981;28;19909;-80
2021/08/09 12:59:21;;;;;;;;;;;21.10;99.90;;;;;;5070460;28;19919;-83
2021/08/09 13:01:47;;;;;;;;;;;21.20;99.90;;;;;;5090042;28;19916;-83
2021/08/09 13:04:13;;;;;;;;;;;21.10;99.90;;;;;;5069479;28;20322;-80
2021/08/09 13:06:38;;;;;;;;;;;20.90;99.90;;;;;;5085323;28;19913;-79
2021/08/09 13:09:04;;;;;;;;;;;20.60;99.90;;;;;;5076962;28;20003;-83
2021/08/09 13:11:30;;;;;;;;;;;20.30;99.90;;;;;;5082448;28;20295;-81
2021/08/09 13:13:56;;;;;;;;;;;20.10;99.90;;;;;;5074409;28;19920;-82
2021/08/09 13:16:21;;;;;;;;;;;19.90;99.90;;;;;;5066794;28;19912;-80
2021/08/09 13:18:47;;;;;;;;;;;19.90;99.90;;;;;;5078398;28;19926;-86
2021/08/09 13:21:13;;;;;;;;;;;20.00;99.90;;;;;;5080533;28;19916;-83
2021/08/09 13:23:38;;;;;;;;;;;20.10;99.90;;;;;;5074942;28;19924;-85
2021/08/09 13:26:05;;;;;;;;;;;20.10;99.90;;;;;;5089794;28;19943;-86
2021/08/09 13:28:34;;;;;;;;;;;20.10;99.90;;;;;;5084207;28;20382;-82
2021/08/09 13:31:00;;;;;;;;;;;20.20;99.90;;;;;;5078164;28;19917;-81
2021/08/09 13:33:26;;;;;;;;;;;20.30;99.90;;;;;;5070974;28;19978;-85
2021/08/09 13:35:51;;;;;;;;;;;20.50;99.90;;;;;;5081349;28;19920;-80
2021/08/09 13:38:17;;;;;;;;;;;20.50;99.90;;;;;;5089369;28;20360;-83
2021/08/09 13:40:42;;;;;;;;;;;20.50;99.90;;;;;;5082006;28;19967;-78
2021/08/09 13:43:08;;;;;;;;;;;20.60;99.90;;;;;;5088600;28;19916;-83
2021/08/09 13:45:36;;;;;;;;;;;20.90;99.90;;;;;;5083587;28;19920;-85
2021/08/09 13:48:01;;;;;;;;;;;21.10;99.90;;;;;;5080596;28;19920;-79
2021/08/09 13:50:27;;;;;;;;;;;21.20;99.90;;;;;;5065202;28;19924;-83
2021/08/09 13:52:53;;;;;;;;;;;21.30;99.90;;;;;;5073356;28;19963;-80
2021/08/09 13:55:19;;;;;;;;;;;21.40;99.90;;;;;;5079086;28;19919;-80
2021/08/09 13:57:45;;;;;;;;;;;21.40;99.90;;;;;;5073257;28;19913;-83
2021/08/09 14:00:11;;;;;;;;;;;21.60;99.90;;;;;;5075710;28;19923;-83
2021/08/09 14:02:37;;;;;;;;;;;21.80;99.90;;;;;;5062793;28;19939;-79
2021/08/09 14:05:02;;;;;;;;;;;21.80;99.90;;;;;;5073862;28;19925;-82
2021/08/09 14:07:28;;;;;;;;;;;21.70;99.90;;;;;;5082172;28;20270;-78
2021/08/09 14:09:54;;;;;;;;;;;21.50;99.90;;;;;;5078342;28;20052;-82
2021/08/09 14:12:19;;;;;;;;;;;21.50;99.90;;;;;;5086489;28;19957;-80
2021/08/09 14:14:45;;;;;;;;;;;21.30;99.90;;;;;;5090320;28;20303;-80
2021/08/09 14:17:10;;;;;;;;;;;21.20;99.90;;;;;;5074699;28;19916;-79